createdAt,value
2019-01-20T00:00:50.995Z,109.07
2019-01-20T00:03:55.396Z,108.70
2019-01-20T00:06:59.483Z,107.00
2019-01-20T00:10:03.649Z,109.03
2019-01-20T00:13:07.850Z,107.33
2019-01-20T00:16:12.268Z,103.10
2019-01-20T00:19:16.453Z,104.50
2019-01-20T00:22:20.652Z,99.73
2019-01-20T00:25:24.820Z,103.73
2019-01-20T00:28:29.068Z,101.03
2019-01-20T00:31:33.224Z,101.37
2019-01-20T00:34:37.373Z,101.43
2019-01-20T00:37:41.540Z,100.87
2019-01-20T00:40:45.695Z,104.20
2019-01-20T00:43:49.817Z,105.60
2019-01-20T00:46:54.092Z,102.67
2019-01-20T00:49:58.268Z,105.17
2019-01-20T00:53:02.406Z,104.63
2019-01-20T00:56:06.615Z,106.37
2019-01-20T00:59:10.752Z,106.63
2019-01-20T01:02:14.887Z,106.63
2019-01-20T01:05:19.304Z,107.53
2019-01-20T01:08:23.403Z,108.73
2019-01-20T01:11:31.520Z,108.17
2019-01-20T01:14:33.429Z,109.30
2019-01-20T01:17:37.653Z,106.27
2019-01-20T01:20:41.772Z,106.57
2019-01-20T01:23:45.971Z,107.37
2019-01-20T01:26:50.100Z,105.10
2019-01-20T01:29:54.249Z,103.47
2019-01-20T01:32:58.452Z,105.43
2019-01-20T01:36:02.593Z,103.33
2019-01-20T01:39:08.652Z,104.70
2019-01-20T01:42:12.788Z,106.93
2019-01-20T01:45:20.846Z,103.17
2019-01-20T01:48:25.078Z,106.73
2019-01-20T01:51:29.292Z,106.57
2019-01-20T01:54:33.504Z,104.57
2019-01-20T01:57:37.611Z,100.60
2019-01-20T02:00:41.741Z,102.07
2019-01-20T02:03:45.912Z,100.17
2019-01-20T02:06:50.110Z,99.40
2019-01-20T02:09:54.989Z,98.17
2019-01-20T02:12:59.270Z,99.23
2019-01-20T02:16:03.472Z,99.83
2019-01-20T02:19:07.710Z,97.63
2019-01-20T02:22:11.903Z,98.33
2019-01-20T02:25:16.102Z,95.50
2019-01-20T02:28:20.286Z,96.20
2019-01-20T02:31:24.421Z,94.60
2019-01-20T02:34:28.653Z,95.93
2019-01-20T02:37:32.859Z,93.03
2019-01-20T02:40:36.957Z,95.33
2019-01-20T02:43:41.096Z,97.07
2019-01-20T02:46:45.193Z,91.10
2019-01-20T02:49:49.363Z,91.10
2019-01-20T02:52:53.532Z,89.77
2019-01-20T02:55:57.689Z,89.20
2019-01-20T02:59:01.864Z,86.73
2019-01-20T03:02:06.099Z,87.00
2019-01-20T03:05:11.148Z,85.73
2019-01-20T03:08:15.285Z,89.00
2019-01-20T03:11:19.408Z,87.83
2019-01-20T03:14:23.537Z,85.50
2019-01-20T03:17:27.701Z,83.73
2019-01-20T03:20:31.824Z,86.40
2019-01-20T03:23:35.921Z,83.87
2019-01-20T03:26:40.455Z,83.97
2019-01-20T03:29:44.626Z,86.97
2019-01-20T03:32:48.777Z,84.87
2019-01-20T03:35:52.931Z,82.77
2019-01-20T03:38:57.162Z,84.03
2019-01-20T03:42:01.277Z,87.00
2019-01-20T03:45:06.393Z,84.87
2019-01-20T03:48:10.564Z,82.73
2019-01-20T03:51:14.621Z,81.47
2019-01-20T03:54:18.785Z,84.40
2019-01-20T03:57:23.061Z,83.73
2019-01-20T04:00:27.238Z,84.43
2019-01-20T04:03:31.439Z,83.77
2019-01-20T04:06:35.585Z,82.73
2019-01-20T04:09:39.652Z,85.10
2019-01-20T04:12:43.741Z,88.93
2019-01-20T04:15:47.959Z,84.67
2019-01-20T04:18:52.053Z,83.63
2019-01-20T04:21:56.263Z,83.30
2019-01-20T04:25:00.431Z,83.07
2019-01-20T04:28:04.569Z,84.10
2019-01-20T04:31:08.668Z,82.50
2019-01-20T04:34:12.806Z,83.00
2019-01-20T04:37:16.959Z,80.43
2019-01-20T04:40:22.799Z,80.97
2019-01-20T04:43:26.899Z,83.70
2019-01-20T04:46:31.116Z,82.80
2019-01-20T04:49:35.311Z,84.87
2019-01-20T04:52:39.528Z,84.00
2019-01-20T04:55:43.691Z,85.93
2019-01-20T04:58:47.747Z,86.87
2019-01-20T05:01:51.971Z,87.97
2019-01-20T05:04:56.217Z,86.90
2019-01-20T05:08:00.448Z,84.33
2019-01-20T05:11:04.648Z,88.43
2019-01-20T05:14:08.749Z,88.07
2019-01-20T05:17:12.888Z,89.20
2019-01-20T05:20:17.575Z,90.07
2019-01-20T05:23:21.697Z,90.90
2019-01-20T05:26:25.870Z,93.57
2019-01-20T05:29:30.008Z,90.63
2019-01-20T05:32:34.261Z,93.53
2019-01-20T05:35:38.449Z,96.33
2019-01-20T05:38:42.670Z,96.17
2019-01-20T05:41:46.890Z,93.23
2019-01-20T05:44:51.000Z,97.13
2019-01-20T05:47:55.203Z,96.77
2019-01-20T05:50:59.368Z,97.17
2019-01-20T05:54:03.577Z,98.20
2019-01-20T05:57:07.745Z,95.43
2019-01-20T06:00:17.415Z,95.27
2019-01-20T06:03:21.536Z,97.13
2019-01-20T06:06:25.656Z,95.83
2019-01-20T06:09:29.801Z,96.93
2019-01-20T06:12:33.996Z,96.63
2019-01-20T06:15:38.105Z,96.80
2019-01-20T06:18:42.234Z,98.33
2019-01-20T06:21:46.257Z,99.07
2019-01-20T06:24:50.449Z,98.93
2019-01-20T06:27:54.545Z,103.07
2019-01-20T06:30:58.752Z,102.60
2019-01-20T06:34:02.879Z,102.03
2019-01-20T06:37:07.026Z,104.70
2019-01-20T06:40:11.272Z,104.90
2019-01-20T06:43:15.480Z,104.97
2019-01-20T06:46:19.607Z,105.40
2019-01-20T06:49:23.863Z,105.03
2019-01-20T06:52:27.961Z,102.07
2019-01-20T06:55:32.093Z,103.50
2019-01-20T06:58:36.190Z,103.83
2019-01-20T07:01:40.423Z,100.40
2019-01-20T07:04:44.523Z,101.20
2019-01-20T07:07:48.694Z,99.00
2019-01-20T07:10:52.798Z,99.07
2019-01-20T07:13:56.915Z,98.53
2019-01-20T07:17:01.199Z,97.10
2019-01-20T07:20:06.701Z,98.47
2019-01-20T07:23:10.870Z,99.77
2019-01-20T07:26:14.935Z,101.90
2019-01-20T07:29:19.132Z,100.30
2019-01-20T07:32:23.277Z,99.13
2019-01-20T07:35:27.379Z,99.53
2019-01-20T07:38:31.630Z,102.57
2019-01-20T07:41:35.768Z,100.90
2019-01-20T07:44:39.896Z,101.60
2019-01-20T07:47:44.118Z,99.13
2019-01-20T07:50:48.450Z,99.80
2019-01-20T07:53:52.572Z,100.73
2019-01-20T07:56:56.790Z,100.37
2019-01-20T08:00:00.931Z,100.93
2019-01-20T08:03:05.072Z,99.83
2019-01-20T08:06:09.183Z,98.83
2019-01-20T08:09:13.372Z,97.43
2019-01-20T08:12:23.441Z,97.63
2019-01-20T08:15:23.438Z,97.40
2019-01-20T08:18:27.620Z,93.67
2019-01-20T08:21:32.132Z,94.03
2019-01-20T08:24:36.324Z,92.07
2019-01-20T08:27:40.567Z,93.50
2019-01-20T08:30:44.780Z,92.37
2019-01-20T08:33:49.040Z,93.57
2019-01-20T08:36:53.295Z,92.10
2019-01-20T08:39:57.551Z,89.43
2019-01-20T08:43:01.913Z,89.03
2019-01-20T08:46:27.312Z,84.23
2019-01-20T08:49:31.414Z,83.07
2019-01-20T08:52:35.565Z,85.77
2019-01-20T08:55:39.689Z,83.40
2019-01-20T08:58:43.904Z,82.30
2019-01-20T09:01:48.086Z,80.10
2019-01-20T09:04:52.312Z,77.93
2019-01-20T09:07:56.567Z,78.30
2019-01-20T09:11:00.742Z,77.43
2019-01-20T09:14:05.009Z,79.80
2019-01-20T09:17:09.204Z,81.00
2019-01-20T09:20:13.551Z,78.13
2019-01-20T09:23:17.790Z,73.77
2019-01-20T09:26:21.966Z,73.40
2019-01-20T09:29:26.106Z,73.10
2019-01-20T09:32:30.310Z,68.30
2019-01-20T09:35:34.543Z,71.20
2019-01-20T09:38:38.696Z,71.40
2019-01-20T09:41:43.300Z,68.00
2019-01-20T09:44:47.825Z,70.53
2019-01-20T09:47:52.117Z,68.57
2019-01-20T09:50:56.224Z,67.07
2019-01-20T09:54:00.803Z,68.03
2019-01-20T09:57:05.071Z,65.00
2019-01-20T10:00:12.910Z,64.57
2019-01-20T10:03:17.098Z,63.87
2019-01-20T10:06:21.235Z,67.60
2019-01-20T10:09:25.455Z,65.87
2019-01-20T10:12:29.645Z,64.40
2019-01-20T10:15:33.881Z,62.57
2019-01-20T10:18:38.022Z,64.30
2019-01-20T10:21:42.159Z,63.13
2019-01-20T10:24:47.769Z,61.77
2019-01-20T10:27:51.990Z,61.20
2019-01-20T10:30:56.236Z,64.07
2019-01-20T10:34:02.417Z,61.17
2019-01-20T10:37:07.005Z,60.73
2019-01-20T10:40:11.387Z,60.03
2019-01-20T10:43:15.777Z,61.93
2019-01-20T10:46:20.013Z,62.80
2019-01-20T10:49:24.140Z,60.90
2019-01-20T10:52:28.266Z,60.47
2019-01-20T10:55:32.387Z,59.53
2019-01-20T10:58:36.502Z,64.50
2019-01-20T11:01:40.748Z,63.93
2019-01-20T11:04:44.969Z,64.03
2019-01-20T11:07:49.202Z,64.03
2019-01-20T11:10:53.390Z,63.70
2019-01-20T11:13:57.600Z,64.20
2019-01-20T11:17:01.774Z,61.63
2019-01-20T11:20:07.732Z,63.03
2019-01-20T11:23:12.056Z,62.20
2019-01-20T11:26:16.281Z,60.20
2019-01-20T11:29:20.472Z,61.53
2019-01-20T11:32:25.022Z,60.23
2019-01-20T11:35:29.211Z,62.23
2019-01-20T11:38:33.392Z,59.73
2019-01-20T11:41:37.678Z,60.30
2019-01-20T11:44:42.149Z,62.20
2019-01-20T11:47:46.326Z,61.70
2019-01-20T11:50:50.489Z,59.47
2019-01-20T11:53:54.726Z,60.50
2019-01-20T11:56:58.988Z,58.77
2019-01-20T12:00:03.285Z,60.13
2019-01-20T12:03:10.670Z,60.33
2019-01-20T12:06:14.877Z,58.87
2019-01-20T12:09:19.098Z,60.30
2019-01-20T12:12:23.218Z,60.47
2019-01-20T12:15:27.441Z,62.23
2019-01-20T12:18:31.608Z,62.83
2019-01-20T12:21:35.747Z,59.80
2019-01-20T12:24:39.926Z,62.93
2019-01-20T12:27:44.068Z,61.70
2019-01-20T12:30:48.190Z,62.20
2019-01-20T12:33:52.387Z,62.37
2019-01-20T12:36:56.487Z,63.00
2019-01-20T12:40:00.616Z,61.70
2019-01-20T12:43:04.859Z,60.87
2019-01-20T12:46:09.061Z,62.30
2019-01-20T12:49:13.302Z,59.33
2019-01-20T12:52:17.539Z,60.07
2019-01-20T12:55:21.721Z,61.00
2019-01-20T12:58:25.868Z,58.43
2019-01-20T13:01:29.996Z,61.53
2019-01-20T13:04:34.160Z,61.00
2019-01-20T13:07:38.337Z,58.30
2019-01-20T13:10:42.556Z,57.70
2019-01-20T13:13:46.720Z,54.63
2019-01-20T13:16:50.975Z,54.90
2019-01-20T13:19:55.223Z,55.03
2019-01-20T13:22:59.412Z,51.77
2019-01-20T13:26:03.536Z,50.80
2019-01-20T13:29:07.800Z,51.77
2019-01-20T13:32:11.988Z,50.57
2019-01-20T13:35:17.460Z,51.37
2019-01-20T13:38:23.225Z,48.30
2019-01-20T13:41:32.280Z,47.67
2019-01-20T13:44:36.465Z,48.03
2019-01-20T13:47:48.484Z,48.63
2019-01-20T13:50:47.507Z,48.47
2019-01-20T13:53:51.661Z,49.27
2019-01-20T13:56:55.764Z,47.97
2019-01-20T13:59:59.929Z,49.47
2019-01-20T14:03:04.118Z,52.13
2019-01-20T14:06:08.328Z,52.23
2019-01-20T14:09:12.527Z,53.77
2019-01-20T14:12:16.746Z,51.83
2019-01-20T14:15:20.920Z,52.20
2019-01-20T14:18:25.132Z,49.83
2019-01-20T14:21:29.352Z,51.13
2019-01-20T14:24:33.495Z,51.03
2019-01-20T14:27:37.631Z,49.20
2019-01-20T14:30:41.847Z,51.97
2019-01-20T14:33:46.054Z,50.53
2019-01-20T14:36:50.294Z,50.00
2019-01-20T14:39:54.448Z,51.60
2019-01-20T14:42:58.595Z,52.80
2019-01-20T14:46:02.776Z,53.23
2019-01-20T14:49:06.978Z,53.37
2019-01-20T14:52:11.189Z,55.27
2019-01-20T14:55:15.441Z,57.33
2019-01-20T14:58:19.619Z,57.07
2019-01-20T15:01:23.763Z,55.43
2019-01-20T15:04:27.948Z,57.23
2019-01-20T15:07:32.174Z,60.70
2019-01-20T15:10:36.346Z,65.30
2019-01-20T15:13:40.547Z,66.63
2019-01-20T15:16:44.744Z,71.83
2019-01-20T15:19:49.195Z,70.57
2019-01-20T15:22:53.417Z,77.40
2019-01-20T15:25:57.563Z,77.03
2019-01-20T15:29:01.758Z,77.13
2019-01-20T15:32:05.965Z,74.13
2019-01-20T15:35:10.137Z,73.30
2019-01-20T15:38:14.331Z,77.70
2019-01-20T15:41:18.536Z,74.20
2019-01-20T15:44:22.724Z,73.60
2019-01-20T15:47:26.903Z,74.73
2019-01-20T15:50:32.432Z,77.63
2019-01-20T15:53:36.612Z,75.93
2019-01-20T15:56:40.847Z,79.77
2019-01-20T15:59:45.005Z,81.23
2019-01-20T16:02:49.144Z,85.00
2019-01-20T16:05:53.314Z,87.50
2019-01-20T16:08:57.549Z,85.87
2019-01-20T16:12:01.751Z,89.33
2019-01-20T16:15:26.918Z,90.07
2019-01-20T16:18:31.070Z,93.80
2019-01-20T16:21:35.496Z,92.97
2019-01-20T16:24:39.741Z,91.87
2019-01-20T16:27:43.969Z,89.27
2019-01-20T16:30:48.161Z,86.30
2019-01-20T16:33:52.365Z,81.70
2019-01-20T16:36:56.580Z,79.47
2019-01-20T16:40:00.719Z,77.50
2019-01-20T16:43:05.118Z,76.13
2019-01-20T16:46:09.273Z,73.03
2019-01-20T16:49:13.611Z,68.33
2019-01-20T16:52:17.812Z,67.37
2019-01-20T16:55:22.049Z,66.30
2019-01-20T16:58:26.259Z,63.63
2019-01-20T17:01:30.388Z,60.80
2019-01-20T17:04:34.550Z,60.97
2019-01-20T17:07:38.811Z,61.90
2019-01-20T17:10:43.862Z,64.10
2019-01-20T17:13:49.958Z,65.27
2019-01-20T17:16:54.268Z,66.07
2019-01-20T17:19:58.517Z,63.60
2019-01-20T17:23:02.832Z,66.50
2019-01-20T17:26:07.782Z,63.33
2019-01-20T17:29:12.180Z,65.50
2019-01-20T17:32:16.415Z,67.20
2019-01-20T17:35:20.921Z,67.77
2019-01-20T17:38:25.238Z,66.73
2019-01-20T17:41:29.491Z,67.77
2019-01-20T17:44:33.696Z,67.13
2019-01-20T17:47:37.864Z,64.87
2019-01-20T17:50:43.004Z,68.57
2019-01-20T17:53:49.409Z,68.97
2019-01-20T17:56:53.646Z,70.47
2019-01-20T17:59:58.048Z,70.57
2019-01-20T18:03:02.314Z,71.40
2019-01-20T18:06:06.574Z,73.77
2019-01-20T18:09:11.545Z,74.43
2019-01-20T18:12:17.228Z,74.60
2019-01-20T18:15:22.556Z,76.17
2019-01-20T18:18:28.688Z,77.27
2019-01-20T18:21:33.297Z,80.47
2019-01-20T18:24:38.147Z,84.40
2019-01-20T18:27:42.753Z,81.03
2019-01-20T18:30:47.030Z,83.20
2019-01-20T18:33:51.608Z,87.70
2019-01-20T18:36:56.272Z,87.70
2019-01-20T18:40:00.751Z,87.40
2019-01-20T18:43:05.164Z,89.17
2019-01-20T18:46:09.955Z,91.13
2019-01-20T18:49:14.626Z,84.50
2019-01-20T18:52:19.073Z,83.70
2019-01-20T18:55:23.645Z,81.83
2019-01-20T18:58:27.948Z,80.77
2019-01-20T19:01:32.389Z,76.27
2019-01-20T19:04:38.207Z,76.83
2019-01-20T19:07:43.882Z,75.73
2019-01-20T19:10:48.187Z,73.27
2019-01-20T19:13:52.469Z,72.53
2019-01-20T19:16:56.753Z,74.87
2019-01-20T19:20:01.142Z,71.93
2019-01-20T19:23:05.660Z,71.37
2019-01-20T19:26:10.428Z,72.10
2019-01-20T19:29:14.895Z,72.33
2019-01-20T19:32:19.847Z,71.50
2019-01-20T19:35:25.810Z,75.30
2019-01-20T19:38:30.191Z,76.97
2019-01-20T19:41:35.081Z,81.57
2019-01-20T19:44:40.580Z,79.33
2019-01-20T19:47:44.897Z,79.50
2019-01-20T19:50:49.890Z,82.10
2019-01-20T19:53:54.164Z,82.17
2019-01-20T19:56:58.700Z,85.27
2019-01-20T20:00:04.275Z,84.10
2019-01-20T20:03:09.432Z,83.17
2019-01-20T20:06:13.726Z,85.90
2019-01-20T20:09:19.277Z,86.60
2019-01-20T20:12:23.525Z,89.50
2019-01-20T20:15:28.326Z,92.13
2019-01-20T20:18:33.495Z,93.60
2019-01-20T20:21:37.727Z,95.10
2019-01-20T20:24:41.923Z,96.00
2019-01-20T20:27:46.152Z,96.37
2019-01-20T20:30:50.422Z,95.00
2019-01-20T20:33:54.961Z,93.23
2019-01-20T20:37:00.397Z,94.10
2019-01-20T20:40:05.476Z,95.53
2019-01-20T20:43:09.682Z,94.93
2019-01-20T20:46:13.973Z,96.43
2019-01-20T20:49:18.099Z,98.50
2019-01-20T20:52:22.384Z,97.80
2019-01-20T20:55:26.586Z,94.43
2019-01-20T20:58:30.875Z,95.67
2019-01-20T21:01:36.264Z,96.90
2019-01-20T21:04:40.463Z,98.50
2019-01-20T21:07:44.647Z,99.80
2019-01-20T21:10:48.833Z,98.83
2019-01-20T21:13:53.113Z,97.30
2019-01-20T21:16:57.344Z,96.90
2019-01-20T21:20:01.533Z,101.50
2019-01-20T21:23:12.050Z,104.63
2019-01-20T21:26:11.664Z,106.70
2019-01-20T21:29:15.899Z,103.73
2019-01-20T21:32:20.164Z,104.33
2019-01-20T21:35:24.361Z,104.33
2019-01-20T21:38:28.551Z,103.10
2019-01-20T21:41:33.048Z,98.67
2019-01-20T21:44:37.279Z,99.73
2019-01-20T21:47:41.512Z,97.73
2019-01-20T21:50:45.688Z,96.93
2019-01-20T21:53:49.920Z,99.70
2019-01-20T21:56:54.136Z,101.70
2019-01-20T21:59:58.289Z,98.00
2019-01-20T22:03:02.421Z,100.67
2019-01-20T22:06:07.409Z,102.03
2019-01-20T22:09:11.532Z,95.57
2019-01-20T22:12:15.658Z,99.47
2019-01-20T22:15:19.862Z,99.17
2019-01-20T22:18:24.100Z,97.83
2019-01-20T22:21:28.283Z,98.37
2019-01-20T22:24:32.533Z,101.67
2019-01-20T22:27:36.746Z,101.13
2019-01-20T22:30:40.985Z,104.47
2019-01-20T22:33:45.268Z,110.97
2019-01-20T22:36:49.418Z,108.43
2019-01-20T22:39:53.626Z,105.10
2019-01-20T22:42:57.777Z,107.93
2019-01-20T22:46:01.924Z,105.40
2019-01-20T22:49:07.287Z,102.90
2019-01-20T22:52:11.463Z,101.90
2019-01-20T22:55:15.980Z,99.43
2019-01-20T22:58:20.116Z,101.17
2019-01-20T23:01:24.336Z,96.50
2019-01-20T23:04:28.580Z,97.17
2019-01-20T23:07:32.708Z,94.23
2019-01-20T23:10:36.805Z,91.63
2019-01-20T23:13:41.050Z,88.57
2019-01-20T23:16:45.303Z,86.43
2019-01-20T23:19:49.561Z,87.60
2019-01-20T23:22:53.741Z,84.20
2019-01-20T23:25:57.951Z,83.23
2019-01-20T23:29:02.071Z,81.13
2019-01-20T23:32:06.292Z,81.23
2019-01-20T23:35:10.399Z,81.37
2019-01-20T23:38:14.618Z,83.47
2019-01-20T23:41:18.901Z,84.87
2019-01-20T23:44:23.035Z,83.73
2019-01-20T23:47:27.450Z,86.03
2019-01-20T23:50:31.612Z,91.10
2019-01-20T23:53:35.782Z,90.20
2019-01-20T23:56:40.019Z,92.30
2019-01-20T23:59:44.147Z,90.90
